sensor_id;sensor_type;location;lat;lon;timestamp;pressure;altitude;pressure_sealevel;temperature;humidity
22964;BME280;11648;49.306;6.934;2023-04-22T00:02:13;97626.72;;;18.02;48.88
22964;BME280;11648;49.306;6.934;2023-04-22T00:04:43;97617.34;;;17.95;48.96
22964;BME280;11648;49.306;6.934;2023-04-22T00:07:14;97636.13;;;17.92;49.08
22964;BME280;11648;49.306;6.934;2023-04-22T00:09:41;97617.50;;;17.92;48.93
22964;BME280;11648;49.306;6.934;2023-04-22T00:12:08;97630.19;;;17.87;49.02
22964;BME280;11648;49.306;6.934;2023-04-22T00:14:37;97623.41;;;17.97;48.85
22964;BME280;11648;49.306;6.934;2023-04-22T00:17:04;97621.44;;;18.00;48.56
22964;BME280;11648;49.306;6.934;2023-04-22T00:19:33;97620.75;;;17.97;48.78
22964;BME280;11648;49.306;6.934;2023-04-22T00:22:00;97619.75;;;17.99;48.71
22964;BME280;11648;49.306;6.934;2023-04-22T00:24:26;97622.41;;;17.99;49.04
22964;BME280;11648;49.306;6.934;2023-04-22T00:26:53;97620.59;;;18.00;48.86
22964;BME280;11648;49.306;6.934;2023-04-22T00:29:20;97615.19;;;18.01;48.85
22964;BME280;11648;49.306;6.934;2023-04-22T00:31:47;97618.44;;;17.91;49.29
22964;BME280;11648;49.306;6.934;2023-04-22T00:34:14;97616.75;;;17.72;49.55
22964;BME280;11648;49.306;6.934;2023-04-22T00:36:43;97613.97;;;17.91;49.27
22964;BME280;11648;49.306;6.934;2023-04-22T00:39:10;97600.50;;;17.94;49.15
22964;BME280;11648;49.306;6.934;2023-04-22T00:41:38;97616.56;;;17.75;49.37
22964;BME280;11648;49.306;6.934;2023-04-22T00:44:10;97612.34;;;17.89;49.24
22964;BME280;11648;49.306;6.934;2023-04-22T00:46:38;97611.31;;;17.91;49.11
22964;BME280;11648;49.306;6.934;2023-04-22T00:49:06;97616.34;;;17.80;49.25
22964;BME280;11648;49.306;6.934;2023-04-22T00:51:33;97606.31;;;17.85;49.27
22964;BME280;11648;49.306;6.934;2023-04-22T00:54:00;97605.34;;;17.86;49.25
22964;BME280;11648;49.306;6.934;2023-04-22T00:56:29;97597.38;;;17.86;49.21
22964;BME280;11648;49.306;6.934;2023-04-22T00:58:57;97600.91;;;17.87;49.10
22964;BME280;11648;49.306;6.934;2023-04-22T01:01:25;97604.34;;;17.89;49.04
22964;BME280;11648;49.306;6.934;2023-04-22T01:03:52;97604.25;;;17.90;49.04
22964;BME280;11648;49.306;6.934;2023-04-22T01:06:21;97601.69;;;17.89;48.97
22964;BME280;11648;49.306;6.934;2023-04-22T01:08:48;97608.03;;;17.86;49.13
22964;BME280;11648;49.306;6.934;2023-04-22T01:11:15;97612.13;;;17.76;49.56
22964;BME280;11648;49.306;6.934;2023-04-22T01:13:41;97612.06;;;17.77;49.21
22964;BME280;11648;49.306;6.934;2023-04-22T01:16:08;97609.25;;;17.63;49.60
22964;BME280;11648;49.306;6.934;2023-04-22T01:18:36;97603.94;;;17.63;49.57
22964;BME280;11648;49.306;6.934;2023-04-22T01:21:03;97609.09;;;17.66;49.62
22964;BME280;11648;49.306;6.934;2023-04-22T01:23:30;97607.91;;;17.55;50.20
22964;BME280;11648;49.306;6.934;2023-04-22T01:25:57;97604.53;;;17.51;50.07
22964;BME280;11648;49.306;6.934;2023-04-22T01:28:24;97604.88;;;17.45;50.44
22964;BME280;11648;49.306;6.934;2023-04-22T01:30:52;97602.09;;;17.47;50.04
22964;BME280;11648;49.306;6.934;2023-04-22T01:33:19;97599.44;;;17.47;49.84
22964;BME280;11648;49.306;6.934;2023-04-22T01:35:46;97607.13;;;17.36;50.62
22964;BME280;11648;49.306;6.934;2023-04-22T01:38:13;97614.88;;;17.40;50.15
22964;BME280;11648;49.306;6.934;2023-04-22T01:40:39;97607.97;;;17.36;50.08
22964;BME280;11648;49.306;6.934;2023-04-22T01:43:06;97608.69;;;17.40;50.25
22964;BME280;11648;49.306;6.934;2023-04-22T01:45:33;97609.72;;;17.37;49.93
22964;BME280;11648;49.306;6.934;2023-04-22T01:48:00;97612.06;;;17.43;50.05
22964;BME280;11648;49.306;6.934;2023-04-22T01:50:27;97616.91;;;17.35;49.91
22964;BME280;11648;49.306;6.934;2023-04-22T01:52:54;97620.34;;;17.37;50.17
22964;BME280;11648;49.306;6.934;2023-04-22T01:55:24;97621.91;;;17.41;49.93
22964;BME280;11648;49.306;6.934;2023-04-22T01:57:51;97619.88;;;17.29;50.13
22964;BME280;11648;49.306;6.934;2023-04-22T02:00:18;97628.03;;;17.26;50.23
22964;BME280;11648;49.306;6.934;2023-04-22T02:02:46;97628.88;;;17.09;50.58
22964;BME280;11648;49.306;6.934;2023-04-22T02:05:13;97638.00;;;17.04;50.69
22964;BME280;11648;49.306;6.934;2023-04-22T02:07:43;97634.16;;;16.92;50.74
22964;BME280;11648;49.306;6.934;2023-04-22T02:10:12;97639.09;;;17.00;50.65
22964;BME280;11648;49.306;6.934;2023-04-22T02:12:38;97644.56;;;16.97;50.66
22964;BME280;11648;49.306;6.934;2023-04-22T02:15:05;97642.13;;;16.92;50.68
22964;BME280;11648;49.306;6.934;2023-04-22T02:17:32;97641.91;;;16.97;50.57
22964;BME280;11648;49.306;6.934;2023-04-22T02:19:59;97640.44;;;16.91;50.90
22964;BME280;11648;49.306;6.934;2023-04-22T02:22:29;97648.63;;;16.87;50.77
22964;BME280;11648;49.306;6.934;2023-04-22T02:24:56;97645.63;;;16.75;51.09
22964;BME280;11648;49.306;6.934;2023-04-22T02:27:23;97648.44;;;16.72;51.05
22964;BME280;11648;49.306;6.934;2023-04-22T02:29:50;97647.63;;;16.70;51.05
22964;BME280;11648;49.306;6.934;2023-04-22T02:32:17;97656.00;;;16.63;51.16
22964;BME280;11648;49.306;6.934;2023-04-22T02:34:44;97642.06;;;16.58;51.18
22964;BME280;11648;49.306;6.934;2023-04-22T02:37:11;97652.09;;;16.51;51.47
22964;BME280;11648;49.306;6.934;2023-04-22T02:39:38;97647.16;;;16.62;51.17
22964;BME280;11648;49.306;6.934;2023-04-22T02:42:06;97646.09;;;16.66;51.01
22964;BME280;11648;49.306;6.934;2023-04-22T02:44:32;97644.97;;;16.70;50.92
22964;BME280;11648;49.306;6.934;2023-04-22T02:46:59;97644.00;;;16.73;50.85
22964;BME280;11648;49.306;6.934;2023-04-22T02:49:26;97649.56;;;16.67;50.98
22964;BME280;11648;49.306;6.934;2023-04-22T02:51:52;97648.75;;;16.66;50.71
22964;BME280;11648;49.306;6.934;2023-04-22T02:54:19;97643.28;;;16.69;50.74
22964;BME280;11648;49.306;6.934;2023-04-22T02:56:46;97638.81;;;16.70;50.74
22964;BME280;11648;49.306;6.934;2023-04-22T02:59:13;97645.06;;;16.69;51.00
22964;BME280;11648;49.306;6.934;2023-04-22T03:01:39;97648.59;;;16.69;50.88
22964;BME280;11648;49.306;6.934;2023-04-22T03:04:10;97653.91;;;16.69;50.71
22964;BME280;11648;49.306;6.934;2023-04-22T03:06:37;97647.56;;;16.72;50.62
22964;BME280;11648;49.306;6.934;2023-04-22T03:09:04;97647.63;;;16.70;50.53
22964;BME280;11648;49.306;6.934;2023-04-22T03:11:31;97636.44;;;16.64;50.80
22964;BME280;11648;49.306;6.934;2023-04-22T03:13:58;97631.22;;;16.62;50.74
22964;BME280;11648;49.306;6.934;2023-04-22T03:16:25;97629.47;;;16.61;50.95
22964;BME280;11648;49.306;6.934;2023-04-22T03:18:54;97622.53;;;16.59;50.89
22964;BME280;11648;49.306;6.934;2023-04-22T03:21:21;97629.09;;;16.50;51.09
22964;BME280;11648;49.306;6.934;2023-04-22T03:23:49;97615.44;;;16.59;50.91
22964;BME280;11648;49.306;6.934;2023-04-22T03:26:16;97620.22;;;16.51;51.01
22964;BME280;11648;49.306;6.934;2023-04-22T03:28:42;97618.09;;;16.59;50.99
22964;BME280;11648;49.306;6.934;2023-04-22T03:31:09;97616.97;;;16.63;50.90
22964;BME280;11648;49.306;6.934;2023-04-22T03:33:36;97613.38;;;16.64;50.92
22964;BME280;11648;49.306;6.934;2023-04-22T03:36:13;97610.50;;;16.69;50.67
22964;BME280;11648;49.306;6.934;2023-04-22T03:38:40;97604.50;;;16.65;50.87
22964;BME280;11648;49.306;6.934;2023-04-22T03:41:06;97610.56;;;16.67;50.84
22964;BME280;11648;49.306;6.934;2023-04-22T03:43:39;97602.84;;;16.63;51.35
22964;BME280;11648;49.306;6.934;2023-04-22T03:46:08;97598.47;;;16.62;51.25
22964;BME280;11648;49.306;6.934;2023-04-22T03:48:38;97604.00;;;16.57;51.39
22964;BME280;11648;49.306;6.934;2023-04-22T03:51:11;97598.69;;;16.57;51.02
22964;BME280;11648;49.306;6.934;2023-04-22T03:53:39;97606.94;;;16.51;51.67
22964;BME280;11648;49.306;6.934;2023-04-22T03:56:08;97595.59;;;16.48;52.09
22964;BME280;11648;49.306;6.934;2023-04-22T03:58:39;97594.22;;;16.39;52.15
22964;BME280;11648;49.306;6.934;2023-04-22T04:01:07;97593.28;;;16.40;52.12
22964;BME280;11648;49.306;6.934;2023-04-22T04:03:34;97593.59;;;16.34;51.88
22964;BME280;11648;49.306;6.934;2023-04-22T04:06:02;97593.50;;;16.36;52.09
22964;BME280;11648;49.306;6.934;2023-04-22T04:08:29;97599.84;;;16.33;51.85
22964;BME280;11648;49.306;6.934;2023-04-22T04:10:57;97596.16;;;16.36;51.95
22964;BME280;11648;49.306;6.934;2023-04-22T04:13:24;97606.78;;;16.36;51.89
22964;BME280;11648;49.306;6.934;2023-04-22T04:16:08;97612.25;;;16.33;51.79
22964;BME280;11648;49.306;6.934;2023-04-22T04:18:38;97606.63;;;16.39;51.62
22964;BME280;11648;49.306;6.934;2023-04-22T04:21:05;97613.13;;;16.33;51.48
22964;BME280;11648;49.306;6.934;2023-04-22T04:23:35;97611.53;;;16.29;51.49
22964;BME280;11648;49.306;6.934;2023-04-22T04:26:03;97608.88;;;16.29;51.44
22964;BME280;11648;49.306;6.934;2023-04-22T04:28:33;97627.63;;;16.26;51.46
22964;BME280;11648;49.306;6.934;2023-04-22T04:31:01;97629.69;;;16.19;51.68
22964;BME280;11648;49.306;6.934;2023-04-22T04:33:28;97624.88;;;16.09;51.86
22964;BME280;11648;49.306;6.934;2023-04-22T04:35:57;97627.97;;;16.18;51.66
22964;BME280;11648;49.306;6.934;2023-04-22T04:38:29;97624.38;;;16.19;51.71
22964;BME280;11648;49.306;6.934;2023-04-22T04:40:56;97627.25;;;16.15;51.67
22964;BME280;11648;49.306;6.934;2023-04-22T04:43:24;97610.41;;;16.16;51.47
22964;BME280;11648;49.306;6.934;2023-04-22T04:46:12;97611.53;;;16.10;51.68
22964;BME280;11648;49.306;6.934;2023-04-22T04:48:42;97601.81;;;16.09;51.49
22964;BME280;11648;49.306;6.934;2023-04-22T04:51:12;97601.25;;;16.21;51.07
22964;BME280;11648;49.306;6.934;2023-04-22T04:53:47;97607.59;;;16.19;51.36
22964;BME280;11648;49.306;6.934;2023-04-22T04:56:14;97617.56;;;16.33;50.74
22964;BME280;11648;49.306;6.934;2023-04-22T04:58:43;97620.78;;;16.39;50.61
22964;BME280;11648;49.306;6.934;2023-04-22T05:01:23;97612.25;;;16.51;50.47
22964;BME280;11648;49.306;6.934;2023-04-22T05:03:51;97609.44;;;16.54;50.82
22964;BME280;11648;49.306;6.934;2023-04-22T05:06:19;97611.44;;;16.68;50.32
22964;BME280;11648;49.306;6.934;2023-04-22T05:08:50;97609.41;;;16.92;49.53
22964;BME280;11648;49.306;6.934;2023-04-22T05:11:18;97605.56;;;17.14;49.12
22964;BME280;11648;49.306;6.934;2023-04-22T05:13:47;97610.31;;;17.42;48.38
22964;BME280;11648;49.306;6.934;2023-04-22T05:16:20;97594.53;;;17.73;48.44
22964;BME280;11648;49.306;6.934;2023-04-22T05:18:48;97598.09;;;18.05;47.60
22964;BME280;11648;49.306;6.934;2023-04-22T05:21:14;97609.38;;;18.26;47.45
22964;BME280;11648;49.306;6.934;2023-04-22T05:23:43;97603.41;;;18.54;46.67
22964;BME280;11648;49.306;6.934;2023-04-22T05:26:10;97604.06;;;18.89;45.98
22964;BME280;11648;49.306;6.934;2023-04-22T05:28:40;97602.56;;;19.14;44.98
22964;BME280;11648;49.306;6.934;2023-04-22T05:31:06;97606.44;;;19.39;44.72
22964;BME280;11648;49.306;6.934;2023-04-22T05:33:33;97601.81;;;19.42;44.43
22964;BME280;11648;49.306;6.934;2023-04-22T05:36:00;97598.00;;;19.46;44.02
22964;BME280;11648;49.306;6.934;2023-04-22T05:38:27;97598.94;;;19.45;43.93
22964;BME280;11648;49.306;6.934;2023-04-22T05:40:55;97600.75;;;19.29;44.09
22964;BME280;11648;49.306;6.934;2023-04-22T05:43:22;97602.16;;;18.91;44.88
22964;BME280;11648;49.306;6.934;2023-04-22T05:45:56;97602.03;;;18.78;45.10
22964;BME280;11648;49.306;6.934;2023-04-22T05:48:23;97609.28;;;18.43;45.91
22964;BME280;11648;49.306;6.934;2023-04-22T05:50:56;97609.66;;;18.37;46.06
22964;BME280;11648;49.306;6.934;2023-04-22T05:53:25;97610.25;;;18.26;46.03
22964;BME280;11648;49.306;6.934;2023-04-22T05:55:52;97616.00;;;18.19;46.36
22964;BME280;11648;49.306;6.934;2023-04-22T05:58:19;97618.06;;;18.30;46.25
22964;BME280;11648;49.306;6.934;2023-04-22T06:00:52;97616.47;;;18.43;46.06
22964;BME280;11648;49.306;6.934;2023-04-22T06:03:46;97620.00;;;19.20;44.89
22964;BME280;11648;49.306;6.934;2023-04-22T06:06:13;97617.81;;;20.00;42.72
22964;BME280;11648;49.306;6.934;2023-04-22T06:08:40;97617.66;;;20.99;41.37
22964;BME280;11648;49.306;6.934;2023-04-22T06:11:07;97601.78;;;21.75;39.92
22964;BME280;11648;49.306;6.934;2023-04-22T06:13:35;97603.53;;;22.01;38.82
22964;BME280;11648;49.306;6.934;2023-04-22T06:16:01;97592.03;;;22.37;37.91
22964;BME280;11648;49.306;6.934;2023-04-22T06:18:30;97589.47;;;22.59;36.42
22964;BME280;11648;49.306;6.934;2023-04-22T06:21:05;97588.56;;;23.08;35.90
22964;BME280;11648;49.306;6.934;2023-04-22T06:23:32;97585.63;;;23.58;35.14
22964;BME280;11648;49.306;6.934;2023-04-22T06:25:59;97593.91;;;24.24;34.34
22964;BME280;11648;49.306;6.934;2023-04-22T06:28:27;97583.16;;;24.35;33.85
22964;BME280;11648;49.306;6.934;2023-04-22T06:31:00;97590.94;;;24.71;33.89
22964;BME280;11648;49.306;6.934;2023-04-22T06:33:28;97581.69;;;25.39;32.34
22964;BME280;11648;49.306;6.934;2023-04-22T06:35:56;97587.25;;;25.79;32.13
22964;BME280;11648;49.306;6.934;2023-04-22T06:38:23;97581.84;;;26.50;31.31
22964;BME280;11648;49.306;6.934;2023-04-22T06:41:17;97584.09;;;26.85;30.69
22964;BME280;11648;49.306;6.934;2023-04-22T06:43:46;97582.72;;;27.29;29.33
22964;BME280;11648;49.306;6.934;2023-04-22T06:46:40;97580.25;;;27.93;29.10
22964;BME280;11648;49.306;6.934;2023-04-22T06:49:22;97567.72;;;28.49;28.34
22964;BME280;11648;49.306;6.934;2023-04-22T06:52:13;97571.72;;;27.88;27.85
22964;BME280;11648;49.306;6.934;2023-04-22T06:54:40;97574.81;;;28.22;29.04
22964;BME280;11648;49.306;6.934;2023-04-22T06:57:06;97570.34;;;28.95;27.57
22964;BME280;11648;49.306;6.934;2023-04-22T06:59:33;97561.72;;;29.45;26.52
22964;BME280;11648;49.306;6.934;2023-04-22T07:02:00;97562.88;;;29.42;26.60
22964;BME280;11648;49.306;6.934;2023-04-22T07:04:30;97564.50;;;29.78;26.74
22964;BME280;11648;49.306;6.934;2023-04-22T07:06:58;97562.94;;;29.32;26.59
22964;BME280;11648;49.306;6.934;2023-04-22T07:09:25;97567.53;;;28.87;27.93
22964;BME280;11648;49.306;6.934;2023-04-22T07:11:52;97570.31;;;28.40;28.15
22964;BME280;11648;49.306;6.934;2023-04-22T07:14:20;97572.16;;;27.93;28.46
22964;BME280;11648;49.306;6.934;2023-04-22T07:16:46;97570.59;;;27.81;29.00
22964;BME280;11648;49.306;6.934;2023-04-22T07:19:13;97559.38;;;27.76;28.72
22964;BME280;11648;49.306;6.934;2023-04-22T07:21:40;97562.34;;;27.73;29.17
22964;BME280;11648;49.306;6.934;2023-04-22T07:24:07;97564.78;;;27.76;28.84
22964;BME280;11648;49.306;6.934;2023-04-22T07:26:41;97559.13;;;28.53;27.86
22964;BME280;11648;49.306;6.934;2023-04-22T07:29:08;97557.31;;;28.07;27.99
22964;BME280;11648;49.306;6.934;2023-04-22T07:31:35;97558.22;;;27.79;27.95
22964;BME280;11648;49.306;6.934;2023-04-22T07:34:02;97566.09;;;26.25;29.13
22964;BME280;11648;49.306;6.934;2023-04-22T07:36:29;97562.47;;;26.36;29.47
22964;BME280;11648;49.306;6.934;2023-04-22T07:38:58;97576.88;;;25.74;30.61
22964;BME280;11648;49.306;6.934;2023-04-22T07:41:24;97560.84;;;26.03;29.71
22964;BME280;11648;49.306;6.934;2023-04-22T07:43:51;97569.72;;;26.15;29.98
22964;BME280;11648;49.306;6.934;2023-04-22T07:46:18;97557.53;;;26.50;29.44
22964;BME280;11648;49.306;6.934;2023-04-22T07:48:45;97557.25;;;26.53;28.91
22964;BME280;11648;49.306;6.934;2023-04-22T07:51:12;97547.41;;;26.92;28.57
22964;BME280;11648;49.306;6.934;2023-04-22T07:53:38;97551.72;;;27.53;27.93
22964;BME280;11648;49.306;6.934;2023-04-22T07:56:05;97554.25;;;26.96;27.62
22964;BME280;11648;49.306;6.934;2023-04-22T07:58:32;97564.81;;;25.99;29.12
22964;BME280;11648;49.306;6.934;2023-04-22T08:00:59;97561.97;;;26.71;28.04
22964;BME280;11648;49.306;6.934;2023-04-22T08:03:25;97582.31;;;26.75;28.50
22964;BME280;11648;49.306;6.934;2023-04-22T08:05:53;97560.75;;;26.44;28.36
22964;BME280;11648;49.306;6.934;2023-04-22T08:08:19;97561.97;;;27.49;27.52
22964;BME280;11648;49.306;6.934;2023-04-22T08:10:46;97559.00;;;28.18;26.97
22964;BME280;11648;49.306;6.934;2023-04-22T08:13:13;97569.41;;;28.03;26.89
22964;BME280;11648;49.306;6.934;2023-04-22T08:15:41;97564.94;;;29.13;25.88
22964;BME280;11648;49.306;6.934;2023-04-22T08:18:08;97544.31;;;29.73;24.49
22964;BME280;11648;49.306;6.934;2023-04-22T08:20:35;97579.06;;;26.11;28.47
22964;BME280;11648;49.306;6.934;2023-04-22T08:23:02;97571.31;;;28.67;26.63
22964;BME280;11648;49.306;6.934;2023-04-22T08:25:29;97575.00;;;28.38;26.54
22964;BME280;11648;49.306;6.934;2023-04-22T08:27:56;97562.19;;;29.83;24.79
22964;BME280;11648;49.306;6.934;2023-04-22T08:30:23;97559.03;;;30.81;24.00
22964;BME280;11648;49.306;6.934;2023-04-22T08:32:50;97556.34;;;30.48;23.86
22964;BME280;11648;49.306;6.934;2023-04-22T08:35:19;97560.41;;;31.52;22.95
22964;BME280;11648;49.306;6.934;2023-04-22T08:37:45;97550.75;;;31.57;23.40
22964;BME280;11648;49.306;6.934;2023-04-22T08:40:12;97558.94;;;32.92;21.87
22964;BME280;11648;49.306;6.934;2023-04-22T08:42:39;97548.09;;;35.08;20.70
22964;BME280;11648;49.306;6.934;2023-04-22T08:45:06;97536.22;;;36.56;19.17
22964;BME280;11648;49.306;6.934;2023-04-22T08:47:36;97537.25;;;36.89;18.66
22964;BME280;11648;49.306;6.934;2023-04-22T08:50:04;97538.47;;;37.34;18.64
22964;BME280;11648;49.306;6.934;2023-04-22T08:52:32;97538.78;;;37.85;17.85
22964;BME280;11648;49.306;6.934;2023-04-22T08:54:59;97541.94;;;36.61;18.50
22964;BME280;11648;49.306;6.934;2023-04-22T08:57:26;97556.91;;;34.30;18.86
22964;BME280;11648;49.306;6.934;2023-04-22T08:59:55;97563.66;;;33.82;20.33
22964;BME280;11648;49.306;6.934;2023-04-22T09:02:23;97551.91;;;35.64;18.65
22964;BME280;11648;49.306;6.934;2023-04-22T09:04:51;97547.09;;;36.77;18.01
22964;BME280;11648;49.306;6.934;2023-04-22T09:07:22;97540.47;;;35.39;18.38
22964;BME280;11648;49.306;6.934;2023-04-22T09:09:51;97543.66;;;35.43;19.09
22964;BME280;11648;49.306;6.934;2023-04-22T09:12:18;97548.75;;;36.09;18.15
22964;BME280;11648;49.306;6.934;2023-04-22T09:14:44;97542.19;;;36.66;17.64
22964;BME280;11648;49.306;6.934;2023-04-22T09:17:15;97555.72;;;35.27;18.05
22964;BME280;11648;49.306;6.934;2023-04-22T09:19:42;97554.28;;;34.81;18.68
22964;BME280;11648;49.306;6.934;2023-04-22T09:22:11;97551.09;;;36.12;17.96
22964;BME280;11648;49.306;6.934;2023-04-22T09:24:50;97561.50;;;35.03;18.70
22964;BME280;11648;49.306;6.934;2023-04-22T09:27:18;97562.72;;;35.15;18.80
22964;BME280;11648;49.306;6.934;2023-04-22T09:29:49;97559.06;;;34.49;18.85
22964;BME280;11648;49.306;6.934;2023-04-22T09:32:16;97563.84;;;31.86;21.46
22964;BME280;11648;49.306;6.934;2023-04-22T09:34:53;97581.00;;;30.28;23.15
22964;BME280;11648;49.306;6.934;2023-04-22T09:37:23;97587.41;;;28.95;24.53
22964;BME280;11648;49.306;6.934;2023-04-22T09:40:01;97610.38;;;28.37;25.80
22964;BME280;11648;49.306;6.934;2023-04-22T09:42:29;97598.88;;;28.89;25.22
22964;BME280;11648;49.306;6.934;2023-04-22T09:44:57;97597.41;;;28.31;25.64
22964;BME280;11648;49.306;6.934;2023-04-22T09:47:34;97599.91;;;28.15;25.86
22964;BME280;11648;49.306;6.934;2023-04-22T09:50:03;97599.97;;;28.32;26.40
22964;BME280;11648;49.306;6.934;2023-04-22T09:52:31;97606.34;;;27.56;26.29
22964;BME280;11648;49.306;6.934;2023-04-22T09:54:58;97602.34;;;28.82;26.23
22964;BME280;11648;49.306;6.934;2023-04-22T09:57:25;97594.34;;;29.96;24.47
22964;BME280;11648;49.306;6.934;2023-04-22T09:59:53;97594.78;;;29.03;25.15
22964;BME280;11648;49.306;6.934;2023-04-22T10:02:28;97602.25;;;28.64;25.72
22964;BME280;11648;49.306;6.934;2023-04-22T10:04:55;97597.97;;;28.99;25.74
22964;BME280;11648;49.306;6.934;2023-04-22T10:07:23;97596.88;;;28.18;26.17
22964;BME280;11648;49.306;6.934;2023-04-22T10:09:56;97608.06;;;26.79;28.62
22964;BME280;11648;49.306;6.934;2023-04-22T10:12:23;97625.69;;;26.43;28.86
22964;BME280;11648;49.306;6.934;2023-04-22T10:15:04;97631.78;;;25.41;29.86
22964;BME280;11648;49.306;6.934;2023-04-22T10:17:35;97619.66;;;26.30;29.55
22964;BME280;11648;49.306;6.934;2023-04-22T10:20:06;97627.09;;;25.96;29.27
22964;BME280;11648;49.306;6.934;2023-04-22T10:22:40;97626.63;;;25.91;29.71
22964;BME280;11648;49.306;6.934;2023-04-22T10:25:28;97638.19;;;24.53;31.31
22964;BME280;11648;49.306;6.934;2023-04-22T10:30:32;97649.59;;;23.30;33.67
22964;BME280;11648;49.306;6.934;2023-04-22T10:41:24;97662.72;;;23.69;33.86
22964;BME280;11648;49.306;6.934;2023-04-22T10:43:56;97668.22;;;23.79;34.43
22964;BME280;11648;49.306;6.934;2023-04-22T10:49:12;97664.63;;;22.96;35.97
22964;BME280;11648;49.306;6.934;2023-04-22T10:51:42;97665.91;;;22.54;36.64
22964;BME280;11648;49.306;6.934;2023-04-22T10:57:04;97666.28;;;22.86;36.85
22964;BME280;11648;49.306;6.934;2023-04-22T10:59:33;97665.88;;;22.79;36.82
22964;BME280;11648;49.306;6.934;2023-04-22T11:02:10;97673.22;;;23.25;36.14
22964;BME280;11648;49.306;6.934;2023-04-22T11:04:41;97671.53;;;23.24;36.44
22964;BME280;11648;49.306;6.934;2023-04-22T11:17:33;97679.63;;;22.62;37.11
22964;BME280;11648;49.306;6.934;2023-04-22T11:20:01;97690.25;;;22.13;37.80
22964;BME280;11648;49.306;6.934;2023-04-22T11:22:28;97682.03;;;22.41;38.17
22964;BME280;11648;49.306;6.934;2023-04-22T11:25:00;97673.84;;;22.81;37.18
22964;BME280;11648;49.306;6.934;2023-04-22T11:27:27;97678.75;;;22.74;37.41
22964;BME280;11648;49.306;6.934;2023-04-22T11:32:45;97685.72;;;22.64;37.10
22964;BME280;11648;49.306;6.934;2023-04-22T11:37:49;97681.44;;;22.74;38.07
22964;BME280;11648;49.306;6.934;2023-04-22T11:40:21;97679.78;;;22.97;37.83
22964;BME280;11648;49.306;6.934;2023-04-22T11:42:58;97677.81;;;23.11;37.95
22964;BME280;11648;49.306;6.934;2023-04-22T11:45:27;97686.25;;;23.18;37.21
22964;BME280;11648;49.306;6.934;2023-04-22T11:47:54;97690.34;;;23.24;37.80
22964;BME280;11648;49.306;6.934;2023-04-22T11:50:27;97687.34;;;23.52;37.01
22964;BME280;11648;49.306;6.934;2023-04-22T11:53:12;97680.97;;;23.53;37.40
22964;BME280;11648;49.306;6.934;2023-04-22T11:55:39;97701.81;;;23.49;37.53
22964;BME280;11648;49.306;6.934;2023-04-22T11:58:07;97689.97;;;23.76;37.71
22964;BME280;11648;49.306;6.934;2023-04-22T12:00:35;97692.63;;;23.99;37.71
22964;BME280;11648;49.306;6.934;2023-04-22T12:03:05;97687.47;;;23.61;38.06
22964;BME280;11648;49.306;6.934;2023-04-22T12:05:44;97677.59;;;24.08;37.49
22964;BME280;11648;49.306;6.934;2023-04-22T12:08:20;97683.19;;;24.40;36.99
22964;BME280;11648;49.306;6.934;2023-04-22T12:13:20;97686.38;;;23.88;38.17
22964;BME280;11648;49.306;6.934;2023-04-22T12:15:48;97697.88;;;24.01;38.53
22964;BME280;11648;49.306;6.934;2023-04-22T12:18:31;97696.91;;;22.83;40.54
22964;BME280;11648;49.306;6.934;2023-04-22T12:21:09;97707.94;;;22.91;40.56
22964;BME280;11648;49.306;6.934;2023-04-22T12:23:50;97706.88;;;22.56;41.50
22964;BME280;11648;49.306;6.934;2023-04-22T12:26:20;97710.81;;;22.88;41.37
22964;BME280;11648;49.306;6.934;2023-04-22T12:28:52;97700.16;;;22.99;41.05
22964;BME280;11648;49.306;6.934;2023-04-22T12:31:19;97698.22;;;23.38;40.53
22964;BME280;11648;49.306;6.934;2023-04-22T12:33:47;97697.19;;;23.75;39.83
22964;BME280;11648;49.306;6.934;2023-04-22T12:36:13;97693.19;;;23.81;39.88
22964;BME280;11648;49.306;6.934;2023-04-22T12:38:40;97685.03;;;23.93;39.34
22964;BME280;11648;49.306;6.934;2023-04-22T12:41:07;97678.75;;;23.10;39.12
22964;BME280;11648;49.306;6.934;2023-04-22T12:43:34;97677.56;;;24.21;38.51
22964;BME280;11648;49.306;6.934;2023-04-22T12:46:04;97667.41;;;23.89;38.19
22964;BME280;11648;49.306;6.934;2023-04-22T12:48:31;97664.00;;;24.67;36.56
22964;BME280;11648;49.306;6.934;2023-04-22T12:50:58;97664.09;;;24.65;35.74
22964;BME280;11648;49.306;6.934;2023-04-22T12:53:26;97671.28;;;23.74;36.90
22964;BME280;11648;49.306;6.934;2023-04-22T12:55:54;97664.50;;;24.03;36.32
22964;BME280;11648;49.306;6.934;2023-04-22T12:58:21;97657.25;;;24.83;34.95
22964;BME280;11648;49.306;6.934;2023-04-22T13:00:48;97665.44;;;24.37;35.52
22964;BME280;11648;49.306;6.934;2023-04-22T13:03:15;97666.91;;;23.84;36.06
22964;BME280;11648;49.306;6.934;2023-04-22T13:05:44;97668.50;;;24.33;35.00
22964;BME280;11648;49.306;6.934;2023-04-22T13:08:11;97651.75;;;24.51;34.39
22964;BME280;11648;49.306;6.934;2023-04-22T13:10:38;97653.56;;;24.73;34.56
22964;BME280;11648;49.306;6.934;2023-04-22T13:13:04;97651.31;;;24.11;34.88
22964;BME280;11648;49.306;6.934;2023-04-22T13:15:47;97649.31;;;24.48;34.72
22964;BME280;11648;49.306;6.934;2023-04-22T13:18:20;97638.91;;;24.88;34.16
22964;BME280;11648;49.306;6.934;2023-04-22T13:20:47;97641.16;;;25.47;33.36
22964;BME280;11648;49.306;6.934;2023-04-22T13:23:14;97648.66;;;25.00;34.41
22964;BME280;11648;49.306;6.934;2023-04-22T13:25:42;97645.41;;;24.75;34.45
22964;BME280;11648;49.306;6.934;2023-04-22T13:28:09;97652.13;;;24.14;35.64
22964;BME280;11648;49.306;6.934;2023-04-22T13:30:37;97652.66;;;23.95;36.10
22964;BME280;11648;49.306;6.934;2023-04-22T13:33:05;97643.78;;;24.17;36.46
22964;BME280;11648;49.306;6.934;2023-04-22T13:35:31;97635.34;;;24.99;35.12
22964;BME280;11648;49.306;6.934;2023-04-22T13:37:58;97641.72;;;24.20;36.16
22964;BME280;11648;49.306;6.934;2023-04-22T13:40:25;97648.56;;;23.67;37.62
22964;BME280;11648;49.306;6.934;2023-04-22T13:42:53;97647.53;;;23.92;37.53
22964;BME280;11648;49.306;6.934;2023-04-22T13:45:20;97642.72;;;24.41;37.22